sensor_id;sensor_type;location;lat;lon;timestamp;P1;durP1;ratioP1;P2;durP2;ratioP2
25351;SDS011;13304;48.464;8.712;2022-08-20T00:01:00;1.85;;;1.40;;
25351;SDS011;13304;48.464;8.712;2022-08-20T00:03:31;2.15;;;1.52;;
25351;SDS011;13304;48.464;8.712;2022-08-20T00:06:00;2.55;;;1.42;;
25351;SDS011;13304;48.464;8.712;2022-08-20T00:08:27;2.65;;;1.20;;
25351;SDS011;13304;48.464;8.712;2022-08-20T00:10:54;1.92;;;1.33;;
25351;SDS011;13304;48.464;8.712;2022-08-20T00:13:22;2.97;;;1.65;;
25351;SDS011;13304;48.464;8.712;2022-08-20T00:15:50;1.42;;;1.30;;
25351;SDS011;13304;48.464;8.712;2022-08-20T00:18:17;4.28;;;1.30;;
25351;SDS011;13304;48.464;8.712;2022-08-20T00:20:46;3.85;;;1.52;;
25351;SDS011;13304;48.464;8.712;2022-08-20T00:23:13;1.52;;;1.27;;
25351;SDS011;13304;48.464;8.712;2022-08-20T00:25:40;2.30;;;1.30;;
25351;SDS011;13304;48.464;8.712;2022-08-20T00:28:06;2.58;;;1.35;;
25351;SDS011;13304;48.464;8.712;2022-08-20T00:30:32;1.58;;;1.35;;
25351;SDS011;13304;48.464;8.712;2022-08-20T00:33:10;1.48;;;1.35;;
25351;SDS011;13304;48.464;8.712;2022-08-20T00:35:40;2.60;;;1.75;;
25351;SDS011;13304;48.464;8.712;2022-08-20T00:38:08;3.08;;;1.50;;
25351;SDS011;13304;48.464;8.712;2022-08-20T00:40:40;3.60;;;1.85;;
25351;SDS011;13304;48.464;8.712;2022-08-20T00:46:03;1.75;;;1.42;;
25351;SDS011;13304;48.464;8.712;2022-08-20T00:48:32;1.52;;;1.42;;
25351;SDS011;13304;48.464;8.712;2022-08-20T00:51:07;1.75;;;1.50;;
25351;SDS011;13304;48.464;8.712;2022-08-20T00:53:42;1.63;;;1.50;;
25351;SDS011;13304;48.464;8.712;2022-08-20T00:56:09;3.05;;;1.70;;
25351;SDS011;13304;48.464;8.712;2022-08-20T00:58:36;2.17;;;1.52;;
25351;SDS011;13304;48.464;8.712;2022-08-20T01:01:04;1.85;;;1.40;;
25351;SDS011;13304;48.464;8.712;2022-08-20T01:03:31;1.95;;;1.40;;
25351;SDS011;13304;48.464;8.712;2022-08-20T01:05:58;2.60;;;1.58;;
25351;SDS011;13304;48.464;8.712;2022-08-20T01:08:24;1.90;;;1.58;;
25351;SDS011;13304;48.464;8.712;2022-08-20T01:10:51;2.40;;;1.80;;
25351;SDS011;13304;48.464;8.712;2022-08-20T01:13:32;3.15;;;1.60;;
25351;SDS011;13304;48.464;8.712;2022-08-20T01:16:02;1.92;;;1.80;;
25351;SDS011;13304;48.464;8.712;2022-08-20T01:18:31;2.55;;;1.63;;
25351;SDS011;13304;48.464;8.712;2022-08-20T01:20:58;2.45;;;1.67;;
25351;SDS011;13304;48.464;8.712;2022-08-20T01:23:41;3.45;;;1.70;;
25351;SDS011;13304;48.464;8.712;2022-08-20T01:26:34;2.58;;;1.80;;
25351;SDS011;13304;48.464;8.712;2022-08-20T01:31:32;4.40;;;1.75;;
25351;SDS011;13304;48.464;8.712;2022-08-20T01:34:02;4.80;;;1.70;;
25351;SDS011;13304;48.464;8.712;2022-08-20T01:36:34;2.22;;;1.60;;
25351;SDS011;13304;48.464;8.712;2022-08-20T01:39:05;2.05;;;1.60;;
25351;SDS011;13304;48.464;8.712;2022-08-20T01:44:26;3.40;;;2.00;;
25351;SDS011;13304;48.464;8.712;2022-08-20T01:46:53;2.03;;;1.60;;
25351;SDS011;13304;48.464;8.712;2022-08-20T01:49:30;4.65;;;1.90;;
25351;SDS011;13304;48.464;8.712;2022-08-20T01:52:00;4.22;;;1.95;;
25351;SDS011;13304;48.464;8.712;2022-08-20T01:54:32;3.10;;;1.75;;
25351;SDS011;13304;48.464;8.712;2022-08-20T01:57:04;2.50;;;1.95;;
25351;SDS011;13304;48.464;8.712;2022-08-20T01:59:34;1.88;;;1.60;;
25351;SDS011;13304;48.464;8.712;2022-08-20T02:02:00;2.78;;;2.00;;
25351;SDS011;13304;48.464;8.712;2022-08-20T02:04:27;3.15;;;1.52;;
25351;SDS011;13304;48.464;8.712;2022-08-20T02:06:54;2.97;;;1.90;;
25351;SDS011;13304;48.464;8.712;2022-08-20T02:09:22;3.97;;;1.67;;
25351;SDS011;13304;48.464;8.712;2022-08-20T02:11:48;4.60;;;1.77;;
25351;SDS011;13304;48.464;8.712;2022-08-20T02:14:14;5.07;;;1.90;;
25351;SDS011;13304;48.464;8.712;2022-08-20T02:16:42;2.60;;;2.10;;
25351;SDS011;13304;48.464;8.712;2022-08-20T02:19:15;4.47;;;1.90;;
25351;SDS011;13304;48.464;8.712;2022-08-20T02:21:47;2.33;;;2.00;;
25351;SDS011;13304;48.464;8.712;2022-08-20T02:24:19;2.17;;;1.77;;
25351;SDS011;13304;48.464;8.712;2022-08-20T02:26:45;2.35;;;1.80;;
25351;SDS011;13304;48.464;8.712;2022-08-20T02:29:14;1.80;;;1.60;;
25351;SDS011;13304;48.464;8.712;2022-08-20T02:31:41;2.40;;;1.88;;
25351;SDS011;13304;48.464;8.712;2022-08-20T02:34:10;2.80;;;1.90;;
25351;SDS011;13304;48.464;8.712;2022-08-20T02:36:38;2.03;;;1.83;;
25351;SDS011;13304;48.464;8.712;2022-08-20T02:39:07;3.85;;;2.20;;
25351;SDS011;13304;48.464;8.712;2022-08-20T02:41:35;1.80;;;1.70;;
25351;SDS011;13304;48.464;8.712;2022-08-20T02:44:02;2.60;;;2.10;;
25351;SDS011;13304;48.464;8.712;2022-08-20T02:46:29;2.30;;;1.90;;
25351;SDS011;13304;48.464;8.712;2022-08-20T02:48:55;3.10;;;2.10;;
25351;SDS011;13304;48.464;8.712;2022-08-20T02:51:21;3.20;;;1.98;;
25351;SDS011;13304;48.464;8.712;2022-08-20T02:53:47;4.90;;;2.20;;
25351;SDS011;13304;48.464;8.712;2022-08-20T02:56:12;4.45;;;2.40;;
25351;SDS011;13304;48.464;8.712;2022-08-20T02:58:38;3.83;;;2.10;;
25351;SDS011;13304;48.464;8.712;2022-08-20T03:01:07;4.32;;;2.10;;
25351;SDS011;13304;48.464;8.712;2022-08-20T03:03:37;3.08;;;2.20;;
25351;SDS011;13304;48.464;8.712;2022-08-20T03:06:06;2.13;;;1.90;;
25351;SDS011;13304;48.464;8.712;2022-08-20T03:08:34;3.28;;;2.08;;
25351;SDS011;13304;48.464;8.712;2022-08-20T03:11:00;5.68;;;2.25;;
25351;SDS011;13304;48.464;8.712;2022-08-20T03:13:27;3.83;;;2.30;;
25351;SDS011;13304;48.464;8.712;2022-08-20T03:15:55;3.08;;;2.17;;
25351;SDS011;13304;48.464;8.712;2022-08-20T03:18:24;3.80;;;2.63;;
25351;SDS011;13304;48.464;8.712;2022-08-20T03:20:57;3.33;;;2.47;;
25351;SDS011;13304;48.464;8.712;2022-08-20T03:23:24;5.57;;;2.58;;
25351;SDS011;13304;48.464;8.712;2022-08-20T03:25:49;3.55;;;2.78;;
25351;SDS011;13304;48.464;8.712;2022-08-20T03:28:15;4.70;;;2.60;;
25351;SDS011;13304;48.464;8.712;2022-08-20T03:30:41;4.43;;;3.22;;
25351;SDS011;13304;48.464;8.712;2022-08-20T03:33:08;3.92;;;3.38;;
25351;SDS011;13304;48.464;8.712;2022-08-20T03:35:35;4.75;;;3.20;;
25351;SDS011;13304;48.464;8.712;2022-08-20T03:38:04;6.55;;;3.80;;
25351;SDS011;13304;48.464;8.712;2022-08-20T03:40:32;4.18;;;3.63;;
25351;SDS011;13304;48.464;8.712;2022-08-20T03:42:59;4.13;;;3.53;;
25351;SDS011;13304;48.464;8.712;2022-08-20T03:45:25;4.30;;;3.70;;
25351;SDS011;13304;48.464;8.712;2022-08-20T03:47:52;6.38;;;3.40;;
25351;SDS011;13304;48.464;8.712;2022-08-20T03:50:23;3.75;;;3.28;;
25351;SDS011;13304;48.464;8.712;2022-08-20T03:52:51;9.30;;;4.10;;
25351;SDS011;13304;48.464;8.712;2022-08-20T03:55:17;6.80;;;4.13;;
25351;SDS011;13304;48.464;8.712;2022-08-20T03:57:44;6.25;;;3.70;;
25351;SDS011;13304;48.464;8.712;2022-08-20T04:00:13;4.57;;;4.00;;
25351;SDS011;13304;48.464;8.712;2022-08-20T04:02:39;5.57;;;3.75;;
25351;SDS011;13304;48.464;8.712;2022-08-20T04:05:06;4.47;;;3.85;;
25351;SDS011;13304;48.464;8.712;2022-08-20T04:07:32;4.30;;;3.90;;
25351;SDS011;13304;48.464;8.712;2022-08-20T04:09:58;6.97;;;4.47;;
25351;SDS011;13304;48.464;8.712;2022-08-20T04:12:24;5.15;;;4.13;;
25351;SDS011;13304;48.464;8.712;2022-08-20T04:14:50;10.80;;;4.47;;
25351;SDS011;13304;48.464;8.712;2022-08-20T04:17:17;4.90;;;3.97;;
25351;SDS011;13304;48.464;8.712;2022-08-20T04:19:44;6.28;;;3.95;;
25351;SDS011;13304;48.464;8.712;2022-08-20T04:22:11;4.15;;;3.80;;
25351;SDS011;13304;48.464;8.712;2022-08-20T04:24:38;5.78;;;4.25;;
25351;SDS011;13304;48.464;8.712;2022-08-20T04:27:05;4.15;;;3.75;;
25351;SDS011;13304;48.464;8.712;2022-08-20T04:29:32;7.47;;;4.07;;
25351;SDS011;13304;48.464;8.712;2022-08-20T04:32:01;7.00;;;3.83;;
25351;SDS011;13304;48.464;8.712;2022-08-20T04:34:30;7.65;;;4.13;;
25351;SDS011;13304;48.464;8.712;2022-08-20T04:36:59;4.47;;;4.07;;
25351;SDS011;13304;48.464;8.712;2022-08-20T04:39:25;5.38;;;4.18;;
25351;SDS011;13304;48.464;8.712;2022-08-20T04:41:51;6.40;;;4.32;;
25351;SDS011;13304;48.464;8.712;2022-08-20T04:44:17;5.13;;;4.63;;
25351;SDS011;13304;48.464;8.712;2022-08-20T04:46:43;5.38;;;3.90;;
25351;SDS011;13304;48.464;8.712;2022-08-20T04:49:09;8.45;;;4.70;;
25351;SDS011;13304;48.464;8.712;2022-08-20T04:51:35;5.72;;;4.32;;
25351;SDS011;13304;48.464;8.712;2022-08-20T04:54:01;7.85;;;4.40;;
25351;SDS011;13304;48.464;8.712;2022-08-20T04:56:33;5.13;;;4.10;;
25351;SDS011;13304;48.464;8.712;2022-08-20T04:59:04;5.07;;;4.45;;
25351;SDS011;13304;48.464;8.712;2022-08-20T05:01:33;10.52;;;5.10;;
25351;SDS011;13304;48.464;8.712;2022-08-20T05:03:59;5.07;;;4.40;;
25351;SDS011;13304;48.464;8.712;2022-08-20T05:06:26;6.38;;;4.80;;
25351;SDS011;13304;48.464;8.712;2022-08-20T05:08:55;5.18;;;4.68;;
25351;SDS011;13304;48.464;8.712;2022-08-20T05:11:22;6.10;;;4.88;;
25351;SDS011;13304;48.464;8.712;2022-08-20T05:13:48;6.70;;;4.85;;
25351;SDS011;13304;48.464;8.712;2022-08-20T05:16:17;7.22;;;5.00;;
25351;SDS011;13304;48.464;8.712;2022-08-20T05:18:44;6.40;;;4.68;;
25351;SDS011;13304;48.464;8.712;2022-08-20T05:21:10;5.88;;;4.60;;
25351;SDS011;13304;48.464;8.712;2022-08-20T05:23:38;6.72;;;4.85;;
25351;SDS011;13304;48.464;8.712;2022-08-20T05:26:07;5.63;;;4.85;;
25351;SDS011;13304;48.464;8.712;2022-08-20T05:28:35;7.28;;;4.80;;
25351;SDS011;13304;48.464;8.712;2022-08-20T05:31:03;9.30;;;5.47;;
25351;SDS011;13304;48.464;8.712;2022-08-20T05:33:33;8.13;;;4.97;;
25351;SDS011;13304;48.464;8.712;2022-08-20T05:36:00;6.25;;;5.05;;
25351;SDS011;13304;48.464;8.712;2022-08-20T05:38:28;10.15;;;5.88;;
25351;SDS011;13304;48.464;8.712;2022-08-20T05:40:55;8.93;;;5.10;;
25351;SDS011;13304;48.464;8.712;2022-08-20T05:43:21;6.35;;;5.40;;
25351;SDS011;13304;48.464;8.712;2022-08-20T05:45:47;9.35;;;5.53;;
25351;SDS011;13304;48.464;8.712;2022-08-20T05:48:17;12.82;;;5.85;;
25351;SDS011;13304;48.464;8.712;2022-08-20T05:50:46;29.65;;;5.85;;
25351;SDS011;13304;48.464;8.712;2022-08-20T05:53:13;9.55;;;5.75;;
25351;SDS011;13304;48.464;8.712;2022-08-20T05:55:40;7.30;;;5.53;;
25351;SDS011;13304;48.464;8.712;2022-08-20T05:58:08;7.80;;;5.53;;
25351;SDS011;13304;48.464;8.712;2022-08-20T06:00:43;6.00;;;4.97;;
25351;SDS011;13304;48.464;8.712;2022-08-20T06:03:09;9.10;;;5.82;;
25351;SDS011;13304;48.464;8.712;2022-08-20T06:05:53;7.43;;;5.70;;
25351;SDS011;13304;48.464;8.712;2022-08-20T06:08:23;9.05;;;5.97;;
25351;SDS011;13304;48.464;8.712;2022-08-20T06:10:49;13.25;;;6.15;;
25351;SDS011;13304;48.464;8.712;2022-08-20T06:13:15;10.73;;;6.80;;
25351;SDS011;13304;48.464;8.712;2022-08-20T06:15:41;9.02;;;5.80;;
25351;SDS011;13304;48.464;8.712;2022-08-20T06:18:07;11.13;;;6.03;;
25351;SDS011;13304;48.464;8.712;2022-08-20T06:20:34;11.68;;;6.38;;
25351;SDS011;13304;48.464;8.712;2022-08-20T06:23:02;9.85;;;5.97;;
25351;SDS011;13304;48.464;8.712;2022-08-20T06:25:28;11.90;;;5.72;;
25351;SDS011;13304;48.464;8.712;2022-08-20T06:27:54;8.35;;;6.47;;
25351;SDS011;13304;48.464;8.712;2022-08-20T06:30:23;8.40;;;6.55;;
25351;SDS011;13304;48.464;8.712;2022-08-20T06:35:15;9.70;;;6.28;;
25351;SDS011;13304;48.464;8.712;2022-08-20T06:37:41;8.38;;;6.65;;
25351;SDS011;13304;48.464;8.712;2022-08-20T06:40:09;6.95;;;6.25;;
25351;SDS011;13304;48.464;8.712;2022-08-20T06:42:48;8.73;;;5.80;;
25351;SDS011;13304;48.464;8.712;2022-08-20T06:45:16;8.20;;;6.43;;
25351;SDS011;13304;48.464;8.712;2022-08-20T06:47:44;5.65;;;5.05;;
25351;SDS011;13304;48.464;8.712;2022-08-20T06:50:20;11.10;;;6.38;;
25351;SDS011;13304;48.464;8.712;2022-08-20T06:52:48;6.20;;;5.60;;
25351;SDS011;13304;48.464;8.712;2022-08-20T06:55:14;7.97;;;5.63;;
25351;SDS011;13304;48.464;8.712;2022-08-20T06:57:41;8.02;;;5.57;;
25351;SDS011;13304;48.464;8.712;2022-08-20T07:00:14;7.85;;;5.53;;
25351;SDS011;13304;48.464;8.712;2022-08-20T07:02:42;12.02;;;5.88;;
25351;SDS011;13304;48.464;8.712;2022-08-20T07:05:08;7.53;;;5.72;;
25351;SDS011;13304;48.464;8.712;2022-08-20T07:07:35;8.48;;;5.80;;
25351;SDS011;13304;48.464;8.712;2022-08-20T07:10:05;10.48;;;6.18;;
25351;SDS011;13304;48.464;8.712;2022-08-20T07:12:33;9.27;;;6.15;;
25351;SDS011;13304;48.464;8.712;2022-08-20T07:15:05;6.80;;;5.40;;
25351;SDS011;13304;48.464;8.712;2022-08-20T07:17:32;7.18;;;5.80;;
25351;SDS011;13304;48.464;8.712;2022-08-20T07:20:02;12.95;;;5.75;;
25351;SDS011;13304;48.464;8.712;2022-08-20T07:22:32;9.07;;;5.75;;
25351;SDS011;13304;48.464;8.712;2022-08-20T07:25:02;7.68;;;4.88;;
25351;SDS011;13304;48.464;8.712;2022-08-20T07:27:28;5.93;;;4.43;;
25351;SDS011;13304;48.464;8.712;2022-08-20T07:29:54;11.93;;;5.63;;
25351;SDS011;13304;48.464;8.712;2022-08-20T07:32:39;7.35;;;5.70;;
25351;SDS011;13304;48.464;8.712;2022-08-20T07:35:07;7.32;;;4.97;;
25351;SDS011;13304;48.464;8.712;2022-08-20T07:37:38;14.95;;;5.50;;
25351;SDS011;13304;48.464;8.712;2022-08-20T07:40:06;10.77;;;5.53;;
25351;SDS011;13304;48.464;8.712;2022-08-20T07:42:35;6.65;;;5.30;;
25351;SDS011;13304;48.464;8.712;2022-08-20T07:45:03;6.57;;;5.55;;
25351;SDS011;13304;48.464;8.712;2022-08-20T07:47:30;6.82;;;5.32;;
25351;SDS011;13304;48.464;8.712;2022-08-20T07:50:00;9.98;;;5.10;;
25351;SDS011;13304;48.464;8.712;2022-08-20T07:52:26;5.70;;;5.10;;
25351;SDS011;13304;48.464;8.712;2022-08-20T07:54:52;7.75;;;5.22;;
25351;SDS011;13304;48.464;8.712;2022-08-20T07:57:18;9.25;;;5.25;;
25351;SDS011;13304;48.464;8.712;2022-08-20T07:59:43;13.40;;;5.22;;
25351;SDS011;13304;48.464;8.712;2022-08-20T08:02:10;7.57;;;4.95;;
25351;SDS011;13304;48.464;8.712;2022-08-20T08:04:36;5.28;;;4.70;;
25351;SDS011;13304;48.464;8.712;2022-08-20T08:07:03;7.55;;;5.10;;
25351;SDS011;13304;48.464;8.712;2022-08-20T08:09:29;9.85;;;4.80;;
25351;SDS011;13304;48.464;8.712;2022-08-20T08:11:58;7.20;;;4.93;;
25351;SDS011;13304;48.464;8.712;2022-08-20T08:14:27;6.80;;;4.55;;
25351;SDS011;13304;48.464;8.712;2022-08-20T08:16:56;5.40;;;4.72;;
25351;SDS011;13304;48.464;8.712;2022-08-20T08:19:25;5.07;;;4.57;;
25351;SDS011;13304;48.464;8.712;2022-08-20T08:21:54;6.10;;;4.75;;
25351;SDS011;13304;48.464;8.712;2022-08-20T08:24:21;16.08;;;5.07;;
25351;SDS011;13304;48.464;8.712;2022-08-20T08:26:47;6.35;;;4.88;;
25351;SDS011;13304;48.464;8.712;2022-08-20T08:29:14;8.70;;;5.30;;
25351;SDS011;13304;48.464;8.712;2022-08-20T08:31:40;4.97;;;4.47;;
25351;SDS011;13304;48.464;8.712;2022-08-20T08:34:06;6.65;;;4.05;;
25351;SDS011;13304;48.464;8.712;2022-08-20T08:36:32;5.43;;;4.43;;
25351;SDS011;13304;48.464;8.712;2022-08-20T08:38:58;5.55;;;3.60;;
25351;SDS011;13304;48.464;8.712;2022-08-20T08:41:25;3.78;;;2.90;;
25351;SDS011;13304;48.464;8.712;2022-08-20T08:43:55;4.80;;;2.35;;
25351;SDS011;13304;48.464;8.712;2022-08-20T08:46:30;2.92;;;2.30;;
25351;SDS011;13304;48.464;8.712;2022-08-20T08:48:59;4.03;;;2.83;;
25351;SDS011;13304;48.464;8.712;2022-08-20T08:51:36;3.42;;;2.45;;
25351;SDS011;13304;48.464;8.712;2022-08-20T08:54:06;3.83;;;2.90;;
25351;SDS011;13304;48.464;8.712;2022-08-20T08:56:36;7.45;;;2.65;;
25351;SDS011;13304;48.464;8.712;2022-08-20T08:59:05;2.78;;;2.50;;
25351;SDS011;13304;48.464;8.712;2022-08-20T09:01:33;2.50;;;2.30;;
25351;SDS011;13304;48.464;8.712;2022-08-20T09:04:07;2.92;;;2.60;;
25351;SDS011;13304;48.464;8.712;2022-08-20T09:06:33;3.45;;;2.42;;
25351;SDS011;13304;48.464;8.712;2022-08-20T09:09:01;3.25;;;2.63;;
25351;SDS011;13304;48.464;8.712;2022-08-20T09:11:30;2.92;;;2.45;;
25351;SDS011;13304;48.464;8.712;2022-08-20T09:13:56;3.10;;;2.40;;
25351;SDS011;13304;48.464;8.712;2022-08-20T09:16:23;4.07;;;2.42;;
25351;SDS011;13304;48.464;8.712;2022-08-20T09:18:49;2.80;;;2.35;;
25351;SDS011;13304;48.464;8.712;2022-08-20T09:21:16;2.83;;;2.28;;
25351;SDS011;13304;48.464;8.712;2022-08-20T09:23:42;2.78;;;2.20;;
25351;SDS011;13304;48.464;8.712;2022-08-20T09:26:08;2.92;;;2.13;;
25351;SDS011;13304;48.464;8.712;2022-08-20T09:28:35;2.60;;;2.40;;
25351;SDS011;13304;48.464;8.712;2022-08-20T09:31:01;2.35;;;2.10;;
25351;SDS011;13304;48.464;8.712;2022-08-20T09:33:28;2.50;;;2.30;;
25351;SDS011;13304;48.464;8.712;2022-08-20T09:35:54;4.30;;;1.95;;
25351;SDS011;13304;48.464;8.712;2022-08-20T09:38:20;4.90;;;2.30;;
25351;SDS011;13304;48.464;8.712;2022-08-20T09:40:46;1.70;;;1.20;;
25351;SDS011;13304;48.464;8.712;2022-08-20T09:43:12;1.40;;;1.30;;
25351;SDS011;13304;48.464;8.712;2022-08-20T09:45:38;1.80;;;1.08;;
25351;SDS011;13304;48.464;8.712;2022-08-20T09:48:04;1.10;;;0.95;;
25351;SDS011;13304;48.464;8.712;2022-08-20T09:50:31;1.25;;;1.00;;
25351;SDS011;13304;48.464;8.712;2022-08-20T09:52:59;1.17;;;1.08;;
25351;SDS011;13304;48.464;8.712;2022-08-20T09:55:34;1.23;;;1.13;;
25351;SDS011;13304;48.464;8.712;2022-08-20T09:58:02;1.45;;;1.10;;
25351;SDS011;13304;48.464;8.712;2022-08-20T10:00:32;1.40;;;1.30;;
25351;SDS011;13304;48.464;8.712;2022-08-20T10:02:58;2.00;;;1.30;;
25351;SDS011;13304;48.464;8.712;2022-08-20T10:05:25;1.50;;;1.40;;
25351;SDS011;13304;48.464;8.712;2022-08-20T10:07:51;1.75;;;1.45;;
25351;SDS011;13304;48.464;8.712;2022-08-20T10:10:17;3.75;;;1.40;;
25351;SDS011;13304;48.464;8.712;2022-08-20T10:12:43;3.33;;;1.50;;
25351;SDS011;13304;48.464;8.712;2022-08-20T10:15:09;2.80;;;1.40;;
25351;SDS011;13304;48.464;8.712;2022-08-20T10:17:38;10.82;;;2.22;;
25351;SDS011;13304;48.464;8.712;2022-08-20T10:20:05;5.30;;;1.90;;
25351;SDS011;13304;48.464;8.712;2022-08-20T10:22:33;3.72;;;1.80;;
25351;SDS011;13304;48.464;8.712;2022-08-20T10:24:59;2.88;;;1.65;;
25351;SDS011;13304;48.464;8.712;2022-08-20T10:27:25;3.58;;;1.92;;
25351;SDS011;13304;48.464;8.712;2022-08-20T10:29:51;3.67;;;1.70;;
25351;SDS011;13304;48.464;8.712;2022-08-20T10:32:16;5.90;;;2.00;;
25351;SDS011;13304;48.464;8.712;2022-08-20T10:34:43;2.30;;;1.88;;
25351;SDS011;13304;48.464;8.712;2022-08-20T10:37:17;2.30;;;1.80;;
25351;SDS011;13304;48.464;8.712;2022-08-20T10:39:45;4.82;;;2.33;;
25351;SDS011;13304;48.464;8.712;2022-08-20T10:42:11;1.92;;;1.73;;
25351;SDS011;13304;48.464;8.712;2022-08-20T10:44:37;5.13;;;2.20;;
25351;SDS011;13304;48.464;8.712;2022-08-20T10:47:12;2.97;;;1.90;;
25351;SDS011;13304;48.464;8.712;2022-08-20T10:49:40;2.25;;;1.90;;
25351;SDS011;13304;48.464;8.712;2022-08-20T10:52:06;2.70;;;2.10;;
25351;SDS011;13304;48.464;8.712;2022-08-20T10:54:32;6.38;;;1.63;;
25351;SDS011;13304;48.464;8.712;2022-08-20T10:57:01;1.90;;;1.70;;
25351;SDS011;13304;48.464;8.712;2022-08-20T10:59:27;1.65;;;1.55;;
25351;SDS011;13304;48.464;8.712;2022-08-20T11:01:54;1.63;;;1.52;;
25351;SDS011;13304;48.464;8.712;2022-08-20T11:04:20;1.45;;;1.10;;
25351;SDS011;13304;48.464;8.712;2022-08-20T11:06:45;1.15;;;0.93;;
25351;SDS011;13304;48.464;8.712;2022-08-20T11:09:11;3.88;;;1.10;;
25351;SDS011;13304;48.464;8.712;2022-08-20T11:11:37;1.00;;;0.90;;
25351;SDS011;13304;48.464;8.712;2022-08-20T11:14:02;1.45;;;0.90;;
25351;SDS011;13304;48.464;8.712;2022-08-20T11:16:28;1.65;;;0.95;;
25351;SDS011;13304;48.464;8.712;2022-08-20T11:18:54;1.00;;;0.90;;
25351;SDS011;13304;48.464;8.712;2022-08-20T11:21:20;1.20;;;1.10;;
25351;SDS011;13304;48.464;8.712;2022-08-20T11:23:46;1.55;;;0.90;;
25351;SDS011;13304;48.464;8.712;2022-08-20T11:26:14;1.98;;;1.00;;
25351;SDS011;13304;48.464;8.712;2022-08-20T11:28:45;1.90;;;1.25;;
25351;SDS011;13304;48.464;8.712;2022-08-20T11:31:11;1.27;;;0.93;;
25351;SDS011;13304;48.464;8.712;2022-08-20T11:33:37;0.82;;;0.80;;
25351;SDS011;13304;48.464;8.712;2022-08-20T11:36:03;1.25;;;0.88;;
25351;SDS011;13304;48.464;8.712;2022-08-20T11:38:29;2.00;;;0.90;;
25351;SDS011;13304;48.464;8.712;2022-08-20T11:40:55;0.80;;;0.80;;
25351;SDS011;13304;48.464;8.712;2022-08-20T11:43:20;1.08;;;0.93;;
25351;SDS011;13304;48.464;8.712;2022-08-20T11:45:47;1.20;;;0.95;;
25351;SDS011;13304;48.464;8.712;2022-08-20T11:48:15;0.77;;;0.77;;
25351;SDS011;13304;48.464;8.712;2022-08-20T11:50:41;1.20;;;1.00;;
25351;SDS011;13304;48.464;8.712;2022-08-20T11:53:08;1.73;;;1.00;;
25351;SDS011;13304;48.464;8.712;2022-08-20T11:55:33;1.08;;;0.98;;
25351;SDS011;13304;48.464;8.712;2022-08-20T11:57:59;1.38;;;1.10;;
25351;SDS011;13304;48.464;8.712;2022-08-20T12:00:27;0.88;;;0.88;;
25351;SDS011;13304;48.464;8.712;2022-08-20T12:02:54;0.90;;;0.90;;
25351;SDS011;13304;48.464;8.712;2022-08-20T12:05:20;1.20;;;1.10;;
25351;SDS011;13304;48.464;8.712;2022-08-20T12:07:46;0.80;;;0.80;;
25351;SDS011;13304;48.464;8.712;2022-08-20T12:10:12;0.80;;;0.80;;
25351;SDS011;13304;48.464;8.712;2022-08-20T12:12:38;0.90;;;0.70;;
25351;SDS011;13304;48.464;8.712;2022-08-20T12:15:05;2.28;;;0.80;;
25351;SDS011;13304;48.464;8.712;2022-08-20T12:17:32;1.10;;;0.88;;
25351;SDS011;13304;48.464;8.712;2022-08-20T12:19:59;1.27;;;0.80;;
25351;SDS011;13304;48.464;8.712;2022-08-20T12:22:27;0.70;;;0.70;;
25351;SDS011;13304;48.464;8.712;2022-08-20T12:24:53;1.10;;;0.90;;
25351;SDS011;13304;48.464;8.712;2022-08-20T12:27:24;1.17;;;0.90;;
25351;SDS011;13304;48.464;8.712;2022-08-20T12:29:52;1.10;;;1.00;;
25351;SDS011;13304;48.464;8.712;2022-08-20T12:32:20;0.80;;;0.80;;
25351;SDS011;13304;48.464;8.712;2022-08-20T12:34:47;0.93;;;0.88;;
25351;SDS011;13304;48.464;8.712;2022-08-20T12:37:14;1.23;;;0.95;;
25351;SDS011;13304;48.464;8.712;2022-08-20T12:42:10;1.08;;;0.75;;
25351;SDS011;13304;48.464;8.712;2022-08-20T12:44:36;4.07;;;0.90;;
25351;SDS011;13304;48.464;8.712;2022-08-20T12:49:34;1.00;;;0.75;;
25351;SDS011;13304;48.464;8.712;2022-08-20T12:52:01;3.42;;;1.15;;
25351;SDS011;13304;48.464;8.712;2022-08-20T12:54:26;1.13;;;1.00;;
25351;SDS011;13304;48.464;8.712;2022-08-20T12:56:52;1.50;;;0.82;;
25351;SDS011;13304;48.464;8.712;2022-08-20T12:59:20;1.40;;;0.90;;
25351;SDS011;13304;48.464;8.712;2022-08-20T13:01:48;5.47;;;0.80;;
25351;SDS011;13304;48.464;8.712;2022-08-20T13:04:14;1.30;;;0.80;;
25351;SDS011;13304;48.464;8.712;2022-08-20T13:06:40;0.85;;;0.82;;
25351;SDS011;13304;48.464;8.712;2022-08-20T13:09:06;1.48;;;0.90;;
25351;SDS011;13304;48.464;8.712;2022-08-20T13:11:32;1.20;;;0.98;;
25351;SDS011;13304;48.464;8.712;2022-08-20T13:13:58;1.63;;;1.13;;
25351;SDS011;13304;48.464;8.712;2022-08-20T13:16:24;1.20;;;0.90;;
25351;SDS011;13304;48.464;8.712;2022-08-20T13:18:49;1.33;;;0.95;;
25351;SDS011;13304;48.464;8.712;2022-08-20T13:21:15;1.85;;;1.17;;
25351;SDS011;13304;48.464;8.712;2022-08-20T13:23:41;1.27;;;0.93;;
25351;SDS011;13304;48.464;8.712;2022-08-20T13:26:07;1.30;;;0.90;;
25351;SDS011;13304;48.464;8.712;2022-08-20T13:28:32;1.90;;;0.82;;
25351;SDS011;13304;48.464;8.712;2022-08-20T13:30:58;1.83;;;0.90;;
25351;SDS011;13304;48.464;8.712;2022-08-20T13:33:26;1.23;;;0.90;;
25351;SDS011;13304;48.464;8.712;2022-08-20T13:35:55;2.92;;;0.80;;
25351;SDS011;13304;48.464;8.712;2022-08-20T13:38:21;0.90;;;0.70;;
25351;SDS011;13304;48.464;8.712;2022-08-20T13:40:47;1.00;;;0.80;;
25351;SDS011;13304;48.464;8.712;2022-08-20T13:43:13;1.45;;;0.77;;
25351;SDS011;13304;48.464;8.712;2022-08-20T13:45:39;0.93;;;0.80;;
25351;SDS011;13304;48.464;8.712;2022-08-20T13:48:05;1.15;;;0.90;;
25351;SDS011;13304;48.464;8.712;2022-08-20T13:50:32;0.98;;;0.80;;
25351;SDS011;13304;48.464;8.712;2022-08-20T13:52:59;3.03;;;0.73;;
25351;SDS011;13304;48.464;8.712;2022-08-20T13:55:25;1.15;;;0.80;;
25351;SDS011;13304;48.464;8.712;2022-08-20T13:57:52;1.30;;;0.80;;
25351;SDS011;13304;48.464;8.712;2022-08-20T14:00:21;1.30;;;0.82;;
25351;SDS011;13304;48.464;8.712;2022-08-20T14:02:47;1.55;;;0.77;;
25351;SDS011;13304;48.464;8.712;2022-08-20T14:05:13;6.47;;;0.80;;
25351;SDS011;13304;48.464;8.712;2022-08-20T14:07:39;1.67;;;1.10;;
25351;SDS011;13304;48.464;8.712;2022-08-20T14:10:08;3.10;;;1.00;;
25351;SDS011;13304;48.464;8.712;2022-08-20T14:12:39;0.85;;;0.80;;
25351;SDS011;13304;48.464;8.712;2022-08-20T14:15:06;1.30;;;1.00;;
25351;SDS011;13304;48.464;8.712;2022-08-20T14:17:39;1.95;;;1.23;;
25351;SDS011;13304;48.464;8.712;2022-08-20T14:20:08;1.80;;;1.05;;
25351;SDS011;13304;48.464;8.712;2022-08-20T14:22:36;0.82;;;0.65;;
25351;SDS011;13304;48.464;8.712;2022-08-20T14:25:03;1.02;;;0.90;;
25351;SDS011;13304;48.464;8.712;2022-08-20T14:27:30;1.42;;;1.02;;
25351;SDS011;13304;48.464;8.712;2022-08-20T14:29:57;0.95;;;0.70;;
25351;SDS011;13304;48.464;8.712;2022-08-20T14:32:24;0.63;;;0.60;;
25351;SDS011;13304;48.464;8.712;2022-08-20T14:34:50;1.27;;;0.70;;
25351;SDS011;13304;48.464;8.712;2022-08-20T14:37:20;0.70;;;0.60;;
25351;SDS011;13304;48.464;8.712;2022-08-20T14:39:50;0.82;;;0.70;;
25351;SDS011;13304;48.464;8.712;2022-08-20T14:42:17;1.02;;;0.80;;
25351;SDS011;13304;48.464;8.712;2022-08-20T14:44:44;1.30;;;0.60;;
25351;SDS011;13304;48.464;8.712;2022-08-20T14:47:11;1.08;;;0.60;;
25351;SDS011;13304;48.464;8.712;2022-08-20T14:49:43;0.52;;;0.52;;
25351;SDS011;13304;48.464;8.712;2022-08-20T14:52:13;0.63;;;0.55;;
25351;SDS011;13304;48.464;8.712;2022-08-20T14:54:43;1.00;;;0.65;;
25351;SDS011;13304;48.464;8.712;2022-08-20T14:57:10;1.38;;;0.50;;
25351;SDS011;13304;48.464;8.712;2022-08-20T14:59:36;2.45;;;0.75;;
25351;SDS011;13304;48.464;8.712;2022-08-20T15:02:06;0.80;;;0.70;;
25351;SDS011;13304;48.464;8.712;2022-08-20T15:04:34;0.73;;;0.63;;
25351;SDS011;13304;48.464;8.712;2022-08-20T15:07:00;1.48;;;0.68;;